Nearby METAR Reports

 

KMRB - Martinsburg, West Virginia, USA
Distance from station: NNW 9mi, 14km
Updated: 02/29/2020 3:53am
Clear
Clear
 Wind from WNW
Wind: WNW 15 mph , 24 km/h
Temperature: 28°F , -2°C
Wind Chill: 16°F , -9°C
Dew Point: 10°F , -12°C
Humidity: 47%
Barometer: 29.90 inHg , 1012.5 hPa
Clouds: Clear
Visibility: 10 miles , 16 km
2020/02/29 08:53 KMRB 290853Z AUTO 29013KT 10SM CLR M02/M12 A2990 RMK AO2 SLP129 T10221117 55002
KOKV - Winchester Rgnl, Virginia, USA
Distance from station: SW 17mi, 28km
Updated: 02/29/2020 4:15am
Mostly cloudy
Mostly cloudy
 Wind from WNW
Wind: WNW 8 mph , 13 km/h
Temperature: 28°F , -2°C
Wind Chill: 20°F , -7°C
Dew Point: 16°F , -9°C
Humidity: 59%
Barometer: 29.89 inHg , 1012.2 hPa
Clouds: Mostly cloudy
Visibility: 10 miles , 16 km
Cloud details: Mostly cloudy 4400 ft
2020/02/29 09:15 KOKV 290915Z AUTO 29007KT 10SM BKN044 M02/M09 A2989 RMK AO2
 
KJYO - Leesburg/Godfrey, Virginia, USA
Distance from station: SE 23mi, 38km
Updated: 02/29/2020 4:15am
Clear
Clear
 Wind from NW
Wind: NW 7 mph , 11 km/h
Temperature: 30°F , -1°C
Wind Chill: 23°F , -5°C
Dew Point: 19°F , -7°C
Humidity: 64%
Barometer: 29.93 inHg , 1013.5 hPa
Clouds: Clear
Visibility: 10 miles , 16 km
2020/02/29 09:15 KJYO 290915Z AUTO 32006KT 10SM CLR M01/M07 A2993 RMK AO2
KFDK - Frederick, Maryland, USA
Distance from station: ENE 30mi, 48km
Updated: 02/29/2020 4:05am
Clear
Clear
 Wind from W
Wind: W 5 mph , 7 km/h
Temperature: 30°F , -1°C
Wind Chill: 25°F , -4°C
Dew Point: 14°F , -10°C
Humidity: 51%
Barometer: 29.92 inHg , 1013.2 hPa
Clouds: Clear
Visibility: 10 miles , 16 km
2020/02/29 09:05 KFDK 290905Z AUTO 28004KT 10SM CLR M01/M10 A2992 RMK AO2
 
KHGR - Hagerstown, Maryland, USA
Distance from station: NNE 30mi, 48km
Updated: 02/29/2020 3:53am
Clear
Clear
 Wind from WNW
Wind: WNW 12 mph , 19 km/h
Temperature: 27°F , -3°C
Wind Chill: 16°F , -9°C
Dew Point: 10°F , -12°C
Humidity: 50%
Barometer: 29.89 inHg , 1012.2 hPa
Clouds: Clear
Visibility: 10 miles , 16 km
2020/02/29 08:53 KHGR 290853Z AUTO 30010KT 10SM CLR M03/M12 A2989 RMK AO2 SLP140 T10331122 55002
KIAD - Wash Dc/Dulles, Virginia, USA
Distance from station: SE 34mi, 55km
Updated: 02/29/2020 3:52am
Partly cloudy
Partly cloudy
 Wind from WNW
Wind: WNW 3 mph , 6 km/h
Temperature: 28°F , -2°C
Dew Point: 16°F , -9°C
Humidity: 59%
Barometer: 29.92 inHg , 1013.2 hPa
Clouds: Partly cloudy
Visibility: 10 miles , 16 km
Cloud details: Partly cloudy 7000 ft
2020/02/29 08:52 KIAD 290852Z 29003KT 10SM SCT070 M02/M09 A2992 RMK AO2 SLP132 T10221094 58004
 
KRSP - Nsf Thurmont, Maryland, USA
Distance from station: NE 34mi, 55km
Updated: 05/18/2019 1:54pm
NOT Current

 
2019/05/18 17:54 KRSP 181754Z AUTO VRB04KTLS21/16 A3004 RMK AO2 SLP168 T02110161 10228 20172 $
KGAI - Gaithersburg, Maryland, USA
Distance from station: E 40mi, 64km
Updated: 02/29/2020 3:56am
Clear
Clear
 Wind from W
Wind: W 5 mph , 7 km/h
Temperature: 27°F , -3°C
Wind Chill: 21°F , -6°C
Dew Point: 16°F , -9°C
Humidity: 64%
Barometer: 29.90 inHg , 1012.5 hPa
Clouds: Clear
Visibility: 10 miles , 16 km
2020/02/29 08:56 KGAI 290856Z AUTO 28004KT 10SM CLR M03/M09 A2990 RMK AO2 SLP145 T10331094 56003 FZRANO
 
KRYT - Fountain Dale, Pennsylvania, USA
Distance from station: NE 40mi, 64km
Updated: 11/13/2017 7:53am
NOT Current
Mist, Overcast
Mist, Overcast
 Wind from calm
Wind: Calm
Temperature: 37°F , 3°C
Dew Point: 34°F , 1°C
Humidity: 87%
Barometer: 30.31 inHg , 1026.4 hPa
Summary: Mist
Clouds: Overcast
Visibility: 5 miles , 8 km
Cloud details: Overcast 700 ft
2017/11/13 12:53 KRYT 131253Z AUTO 00000KT 5SM BR OVC007 03/01 A3031 RMK AO2 SLP275 T00280011 TSNO $
KHEF - Manassas Muni, Virginia, USA
Distance from station: SSE 44mi, 72km
Updated: 02/29/2020 3:56am
Partly cloudy
Partly cloudy
 Wind from calm
Wind: Calm
Temperature: 25°F , -4°C
Dew Point: 19°F , -7°C
Humidity: 80%
Barometer: 29.93 inHg , 1013.5 hPa
Clouds: Partly cloudy
Visibility: 10 miles , 16 km
Cloud details: Partly cloudy 8500 ft
2020/02/29 08:56 KHEF 290856Z AUTO 00000KT 10SM SCT085 M04/M07 A2993 RMK AO2 SLP141 T10391067 56005 FZRANO
 
KHWY - Warrenton, Virginia, USA
Distance from station: SSE 50mi, 80km
Updated: 02/29/2020 4:15am
Overcast
Overcast
 Wind from calm
Wind: Calm
Temperature: 27°F , -3°C
Dew Point: 21°F , -6°C
Humidity: 80%
Barometer: 29.92 inHg , 1013.2 hPa
Clouds: Overcast
Visibility: 10 miles , 16 km
Cloud details: Overcast 9000 ft
2020/02/29 09:15 KHWY 290915Z AUTO 00000KT 10SM OVC090 M03/M06 A2992 RMK AO2 T10351060